Flight Track Log - Related Links

Times and Time Zones

All times are in EST time to prevent confusion due to time zone crossing. See the N789EX flight status page for this flight to view local times or setup timezone preferences in your user account.


Time Position Orientation Groundspeed Altitude Reporting Facility
EST Latitude Longitude Course Direction KTS MPH feet Rate Location/Type
Thu 03:05:00 PM 36.0482 -116.2842 87° East  Level Estimated
Thu 03:06:00 PM 36.0606 -115.8997 88° East  Level Estimated
Thu 03:07:00 PM 36.0718 -115.5150 88° East  Level Estimated
Thu 03:08:00 PM 36.0817 -115.1303 88° East  Level Estimated
Thu 03:09:00 PM 36.0905 -114.7455 88° East  Level Estimated
Thu 03:10:00 PM 36.0979 -114.3605 89° East  Level Estimated
Thu 03:11:00 PM 36.1042 -113.9756 89° East  Level Estimated
Thu 03:12:00 PM 36.1092 -113.5905 89° East  Level Estimated
Thu 03:13:00 PM 36.1130 -113.2054 89° East  Level Estimated
Thu 03:14:00 PM 36.1156 -112.8203 89° East  Level Estimated
Thu 03:15:00 PM 36.1169 -112.4352 90° East  Level Estimated
Thu 03:16:00 PM 36.1170 -112.0501 90° East  Level Estimated
Thu 03:17:00 PM 36.1159 -111.6649 90° East  Level Estimated
Thu 03:18:00 PM 36.1135 -111.2798 90° East  Level Estimated
Thu 03:19:00 PM 36.1099 -110.8947 91° East  Level Estimated
Thu 03:20:00 PM 36.1051 -110.5097 91° East  Level Estimated
Thu 03:21:00 PM 36.0990 -110.1247 91° East  Level Estimated
Thu 03:22:00 PM 36.0917 -109.7398 91° East  Level Estimated
Thu 03:23:00 PM 36.0832 -109.3549 91° East  Level Estimated
Thu 03:24:00 PM 36.0734 -108.9702 92° East  Level Estimated
Thu 03:25:00 PM 36.0624 -108.5855 92° East  Level Estimated
Thu 03:26:00 PM 36.0502 -108.2010 92° East  Level Estimated
Thu 03:27:00 PM 36.0368 -107.8166 92° East  Level Estimated
Thu 03:28:00 PM 36.0221 -107.4323 93° East  Level Estimated
Thu 03:29:00 PM 36.0062 -107.0481 93° East  Level Estimated
Thu 03:30:00 PM 35.9891 -106.6642 93° East  Level Estimated
Thu 03:31:00 PM 35.9708 -106.2804 93° East  Level Estimated
Thu 03:32:00 PM 35.9512 -105.8968 93° East  Level Estimated
Thu 03:33:00 PM 35.9304 -105.5134 94° East  Level Estimated
Thu 03:34:00 PM 35.9084 -105.1301 94° East  Level Estimated
Thu 03:35:00 PM 35.8852 -104.7471 94° East  Level Estimated
Thu 03:36:00 PM 35.8608 -104.3644 94° East  Level Estimated
Thu 03:37:00 PM 35.8351 -103.9819 95° East  Level Estimated
Thu 03:38:00 PM 35.8083 -103.5996 95° East  Level Estimated
Thu 03:39:00 PM 35.7802 -103.2176 95° East  Level Estimated
Thu 03:40:00 PM 35.7509 -102.8359 95° East  Level Estimated
Thu 03:41:00 PM 35.7205 -102.4544 96° East  Level Estimated
Thu 03:42:00 PM 35.6888 -102.0733 96° East  Level Estimated
Thu 03:43:00 PM 35.6559 -101.6925 96° East  Level Estimated
Thu 03:44:00 PM 35.6218 -101.3120 96° East  Level Estimated
Thu 03:45:00 PM 35.5865 -100.9318 96° East  Level Estimated
Thu 03:46:00 PM 35.5501 -100.5519 97° East  Level Estimated
Thu 03:47:00 PM 35.5124 -100.1724 97° East  Level Estimated
Thu 03:48:00 PM 35.4736 -99.7933 97° East  Level Estimated
Thu 03:49:00 PM 35.4335 -99.4146 97° East  Level Estimated
Thu 03:50:00 PM 35.3923 -99.0362 98° East  Level Estimated
Thu 03:51:00 PM 35.3499 -98.6582 98° East  Level Estimated
Thu 03:52:00 PM 35.3064 -98.2806 98° East  Level Estimated
Thu 03:53:00 PM 35.2616 -97.9034 98° East  Level Estimated
Thu 03:54:00 PM 35.2157 -97.5267 98° East  Level Estimated
Thu 03:55:00 PM 35.1686 -97.1504 99° East  Level Estimated
Thu 03:56:00 PM 35.1204 -96.7745 99° East  Level Estimated
Thu 03:57:00 PM 35.0710 -96.3990 99° East  Level Estimated
Thu 03:58:00 PM 35.0205 -96.0241 99° East  Level Estimated
Thu 03:59:00 PM 34.9688 -95.6496 99° East  Level Estimated
Thu 04:00:00 PM 34.9159 -95.2756 100° East  Level Estimated
Thu 04:01:00 PM 34.8619 -94.9020 100° East  Level Estimated
Thu 04:02:00 PM 34.8068 -94.5290 100° East  Level Estimated
Thu 04:03:00 PM 34.7505 -94.1564 100° East  Level Estimated
Thu 04:04:00 PM 34.6931 -93.7844 101° East  Level Estimated
Thu 04:05:00 PM 34.6346 -93.4129 101° East  Level Estimated
Thu 04:06:00 PM 34.5749 -93.0419 101° East  Level Estimated
Thu 04:07:00 PM 34.5142 -92.6715 101° East  Level Estimated
Thu 04:08:00 PM 34.4523 -92.3016 101° East  Level Estimated
Thu 04:09:00 PM 34.3893 -91.9323 102° East  Level Estimated
Thu 04:10:00 PM 34.3251 -91.5635 102° East  Level Estimated
Thu 04:11:00 PM 34.2599 -91.1953 102° East  Level Estimated
Thu 04:12:00 PM 34.1936 -90.8277 102° East  Level Estimated
Thu 04:13:00 PM 34.1262 -90.4606 102° East  Level Estimated
Thu 04:14:00 PM 34.0577 -90.0941 103° East  Level Estimated
Thu 04:15:00 PM 33.9881 -89.7283 103° East  Level Estimated
Thu 04:16:00 PM 33.9174 -89.3630 103° East  Level Estimated
Thu 04:17:00 PM 33.8457 -88.9984 103° East  Level Estimated
Thu 04:18:00 PM 33.7729 -88.6343 103° East  Level Estimated
Thu 04:19:00 PM 33.6990 -88.2709 104° East  Level Estimated
Thu 04:20:00 PM 33.6240 -87.9081 104° East  Level Estimated
Thu 04:21:00 PM 33.5480 -87.5460 104° East  Level Estimated
Thu 04:22:00 PM 33.4710 -87.1844 104° East  Level Estimated
Thu 04:23:00 PM 33.3929 -86.8236 104° East  Level Estimated
Thu 04:24:00 PM 33.3137 -86.4634 105° East  Level Estimated
Thu 04:25:00 PM 33.2335 -86.1038 105° East  Level Estimated
Thu 04:26:00 PM 33.1523 -85.7449 105° East  Level Estimated
Thu 04:27:00 PM 33.0701 -85.3867 105° East  Level Estimated
Thu 04:28:00 PM 32.9868 -85.0292 105° East  Level Estimated
Thu 04:29:00 PM 32.9025 -84.6723 106° East  Level Estimated
Thu 04:30:00 PM 32.8172 -84.3161 106° East  Level Estimated
Thu 04:31:00 PM 32.7309 -83.9606 106° East  Level Estimated
Thu 04:32:00 PM 32.6436 -83.6058 106° East  Level Estimated
Thu 04:33:00 PM 32.6402 -83.5919 106° East  Level Estimated
Thu 04:34:00 PM 32.6402 -83.5919 320° Northwest  Level Estimated
Thu 04:35:00 PM 32.6402 -83.5919 320° Northwest  Level Estimated
Thu 04:36:00 PM 32.6402 -83.5919 320° Northwest  Level Estimated
Thu 04:37:00 PM 32.6402 -83.5919 320° Northwest  Level Estimated
Thu 04:38:00 PM 32.6402 -83.5919 320° Northwest  Level Estimated
Thu 04:39:00 PM 32.6402 -83.5919 320° Northwest  Level Estimated
Thu 04:40:00 PM 32.6402 -83.5919 320° Northwest  Level Estimated
Thu 04:41:00 PM 32.6402 -83.5919 320° Northwest  Level Estimated
Thu 04:42:00 PM 32.6402 -83.5919 320° Northwest  Level Estimated
Thu 04:43:00 PM 32.6402 -83.5919 320° Northwest  Level Estimated
Thu 04:44:00 PM 32.6402 -83.5919 320° Northwest  Level Estimated
Thu 04:45:00 PM 32.6402 -83.5919 320° Northwest  Level Estimated
Thu 04:46:00 PM 32.6402 -83.5919 320° Northwest  Level Estimated
Thu 04:47:00 PM 32.6402 -83.5919 320° Northwest  Level Estimated
Thu 04:48:00 PM 32.6402 -83.5919 320° Northwest  Level Estimated
Thu 04:49:00 PM 32.6402 -83.5919 320° Northwest  Level Estimated
Thu 04:50:00 PM 32.6402 -83.5919 320° Northwest  Level Estimated
Thu 04:51:00 PM 32.6402 -83.5919 320° Northwest  Level Estimated
Thu 04:52:00 PM 32.6402 -83.5919 320° Northwest  Level Estimated
Thu 04:53:00 PM 32.6402 -83.5919 320° Northwest  Level Estimated
Thu 04:54:00 PM 32.6402 -83.5919 320° Northwest  Level Estimated
Thu 04:55:00 PM 32.6402 -83.5919 320° Northwest  Level Estimated
Thu 04:56:00 PM 32.6402 -83.5919 320° Northwest  Level Estimated
Thu 04:57:00 PM 32.6402 -83.5919 320° Northwest  Level Estimated
Thu 04:58:00 PM 32.6402 -83.5919 320° Northwest  Level Estimated
Thu 04:59:00 PM 32.6402 -83.5919 320° Northwest  Level Estimated
Thu 05:00:00 PM 32.6402 -83.5919 320° Northwest  Level Estimated
Thu 05:01:00 PM 32.6402 -83.5919 320° Northwest  Level Estimated
Thu 05:02:00 PM 32.6402 -83.5919 320° Northwest  Level Estimated
Thu 05:03:00 PM 32.6402 -83.5919 320° Northwest  Level Estimated
Thu 05:04:00 PM 32.6402 -83.5919 320° Northwest  Level Estimated
Thu 05:05:00 PM 32.6402 -83.5919 320° Northwest  Level Estimated
Thu 05:06:00 PM 32.6402 -83.5919 320° Northwest  Level Estimated

Login

Don't have an account? Register now (free) for customized features, flight alerts, and more!